Terminal Aerodrome Forecast
Issued by NWS Duluth, MN

Home | Current Version | Previous Version | Text Only | Print | Product List | Glossary On
Versions: 1 2 3 4 5 6 7 8 9 10 11 12 13 14 15 16 17 18 19 20
657
FTUS43 KDLH 221124
TAFINL
TAF
KINL 221124Z 2212/2312 VRB03KT P6SM FEW080
     FM221800 18007KT P6SM SCT110
      TEMPO 2304/2306 6SM -SN OVC050
     FM230600 00000KT 4SM -SN OVC035
     FM230800 00000KT 2SM -SN OVC025=

USA.gov is the U.S. government's official web portal to all federal, state and local government web resources and services.